Time;durP1;ratioP1;P1;durP2;ratioP2;P2;SDS_P1;SDS_P2;PMS_P1;PMS_P2;Temp;Humidity;BMP_temperature;BMP_pressure;BME280_temperature;BME280_humidity;BME280_pressure;Samples;Min_cycle;Max_cycle;Signal;HPM_P1;HPM_P2
2022/04/29 00:02:09;;;;;;;;;;;;;;;2.02;81.21;99908.03;5032734;28;19975;-63
2022/04/29 00:04:37;;;;;;;;;;;;;;;1.99;81.19;99909.16;5032753;28;19929;-63
2022/04/29 00:07:03;;;;;;;;;;;;;;;1.94;81.90;99910.66;5032789;28;19929;-61
2022/04/29 00:09:29;;;;;;;;;;;;;;;1.90;81.81;99910.19;5031795;28;20358;-62
2022/04/29 00:11:54;;;;;;;;;;;;;;;1.89;81.56;99910.38;5032413;28;19936;-62
2022/04/29 00:14:20;;;;;;;;;;;;;;;1.88;81.11;99912.16;5032620;28;19925;-64
2022/04/29 00:16:45;;;;;;;;;;;;;;;1.82;81.23;99910.19;5032167;28;20024;-62
2022/04/29 00:19:11;;;;;;;;;;;;;;;1.79;81.73;99913.16;5032027;28;19925;-62
2022/04/29 00:21:36;;;;;;;;;;;;;;;1.75;81.96;99920.53;5031960;28;19929;-62
2022/04/29 00:24:02;;;;;;;;;;;;;;;1.74;81.19;99915.47;5014373;28;19924;-64
2022/04/29 00:26:27;;;;;;;;;;;;;;;1.72;81.34;99910.41;5030789;28;19933;-62
2022/04/29 00:28:53;;;;;;;;;;;;;;;1.73;81.03;99911.22;5032176;28;19944;-62
2022/04/29 00:31:18;;;;;;;;;;;;;;;1.72;80.63;99913.00;5030496;28;20398;-62
2022/04/29 00:33:44;;;;;;;;;;;;;;;1.71;81.02;99900.13;5029264;28;19936;-62
2022/04/29 00:36:09;;;;;;;;;;;;;;;1.69;80.34;99902.09;5023743;28;19931;-62
2022/04/29 00:38:35;;;;;;;;;;;;;;;1.67;80.62;99901.44;5031733;28;20389;-62
2022/04/29 00:41:00;;;;;;;;;;;;;;;1.66;80.63;99910.25;5030285;28;19951;-61
2022/04/29 00:43:26;;;;;;;;;;;;;;;1.67;80.69;99898.81;5030462;28;19940;-61
2022/04/29 00:45:52;;;;;;;;;;;;;;;1.64;80.63;99905.19;5031157;28;19925;-61
2022/04/29 00:48:18;;;;;;;;;;;;;;;1.63;80.56;99911.41;5031765;28;20349;-62
2022/04/29 00:50:44;;;;;;;;;;;;;;;1.60;80.18;99903.91;5031739;28;19929;-62
2022/04/29 00:53:11;;;;;;;;;;;;;;;1.56;80.69;99905.22;5031899;28;19929;-62
2022/04/29 00:55:37;;;;;;;;;;;;;;;1.57;80.38;99897.19;5030430;28;19925;-62
2022/04/29 00:58:13;;;;;;;;;;;;;;;1.56;79.88;99905.22;5037137;28;20027;-62
2022/04/29 01:00:38;;;;;;;;;;;;;;;1.53;80.31;99898.53;5020467;28;19925;-61
2022/04/29 01:03:05;;;;;;;;;;;;;;;1.54;80.18;99894.94;5038368;28;19929;-62
2022/04/29 01:05:33;;;;;;;;;;;;;;;1.54;80.03;99899.34;5036953;28;19932;-62
2022/04/29 01:07:58;;;;;;;;;;;;;;;1.53;80.09;99897.69;5038718;28;20067;-62
2022/04/29 01:10:24;;;;;;;;;;;;;;;1.50;80.27;99896.25;5038267;28;20015;-63
2022/04/29 01:12:53;;;;;;;;;;;;;;;1.44;80.37;99890.84;5038574;28;19936;-61
2022/04/29 01:15:19;;;;;;;;;;;;;;;1.37;80.34;99893.31;5020601;28;19933;-62
2022/04/29 01:17:46;;;;;;;;;;;;;;;1.35;80.00;99887.44;5038193;28;19929;-61
2022/04/29 01:20:12;;;;;;;;;;;;;;;1.33;79.63;99892.03;5038439;28;19925;-62
2022/04/29 01:22:38;;;;;;;;;;;;;;;1.33;80.27;99897.25;5037052;28;19929;-62
2022/04/29 01:25:04;;;;;;;;;;;;;;;1.30;79.66;99895.78;5037562;28;20321;-64
2022/04/29 01:27:30;;;;;;;;;;;;;;;1.30;79.85;99892.34;5036922;28;19929;-62
2022/04/29 01:29:58;;;;;;;;;;;;;;;1.25;79.76;99890.22;5037090;28;20047;-63
2022/04/29 01:32:24;;;;;;;;;;;;;;;1.22;80.48;99890.56;5037487;28;19939;-62
2022/04/29 01:34:50;;;;;;;;;;;;;;;1.24;79.94;99890.41;5036623;28;19925;-60
2022/04/29 01:37:16;;;;;;;;;;;;;;;1.22;80.33;99892.34;5036771;28;19935;-62
2022/04/29 01:39:41;;;;;;;;;;;;;;;1.18;80.15;99888.41;5036612;28;20313;-63
2022/04/29 01:42:07;;;;;;;;;;;;;;;1.19;80.00;99887.47;5036550;28;19936;-61
2022/04/29 01:44:33;;;;;;;;;;;;;;;1.20;80.42;99889.91;5036192;28;19925;-63
2022/04/29 01:46:59;;;;;;;;;;;;;;;1.25;80.51;99892.84;5038289;28;19952;-61
2022/04/29 01:49:47;;;;;;;;;;;;;;;1.28;79.73;99892.50;5036437;28;19925;-62
2022/04/29 01:52:13;;;;;;;;;;;;;;;1.28;79.81;99892.50;5036552;28;19929;-61
2022/04/29 01:54:38;;;;;;;;;;;;;;;1.30;79.81;99887.13;5036731;28;19928;-63
2022/04/29 01:57:04;;;;;;;;;;;;;;;1.36;80.34;99889.91;5036577;28;19956;-63
2022/04/29 01:59:30;;;;;;;;;;;;;;;1.50;79.89;99890.19;5035970;28;19925;-63
2022/04/29 02:02:08;;;;;;;;;;;;;;;1.69;79.19;99896.84;5037968;28;20398;-62
2022/04/29 02:04:34;;;;;;;;;;;;;;;1.91;79.37;99892.69;5036450;28;19929;-62
2022/04/29 02:07:01;;;;;;;;;;;;;;;2.15;77.99;99897.84;5036126;28;20398;-61
2022/04/29 02:09:26;;;;;;;;;;;;;;;2.44;77.49;99892.00;5032643;28;19932;-61
2022/04/29 02:12:04;;;;;;;;;;;;;;;2.73;76.93;99893.09;5033430;28;19929;-61
2022/04/29 02:14:50;;;;;;;;;;;;;;;3.00;75.46;99891.78;4974088;28;19932;-62
2022/04/29 02:17:19;;;;;;;;;;;;;;;3.33;74.04;99889.69;5030072;28;19929;-61
2022/04/29 02:19:45;;;;;;;;;;;;;;;3.66;72.89;99894.63;5013809;28;19948;-63
2022/04/29 02:22:11;;;;;;;;;;;;;;;4.04;71.79;99895.34;5014997;28;19929;-62
2022/04/29 02:24:37;;;;;;;;;;;;;;;4.38;69.89;99896.53;4992718;28;19932;-63
2022/04/29 02:27:03;;;;;;;;;;;;;;;4.69;67.85;99892.84;5033082;28;19936;-61
2022/04/29 02:29:29;;;;;;;;;;;;;;;4.85;66.11;99891.78;5032891;28;20416;-62
2022/04/29 02:31:55;;;;;;;;;;;;;;;5.18;65.88;99895.53;5033028;28;19933;-62
2022/04/29 02:34:21;;;;;;;;;;;;;;;5.46;64.89;99884.22;5033637;28;20023;-63
2022/04/29 02:36:47;;;;;;;;;;;;;;;5.79;63.45;99897.56;5034316;28;19933;-61
2022/04/29 02:39:13;;;;;;;;;;;;;;;6.06;62.35;99898.56;5034449;28;19971;-63
2022/04/29 02:41:38;;;;;;;;;;;;;;;6.24;61.83;99898.03;5034155;28;20401;-62
2022/04/29 02:44:04;;;;;;;;;;;;;;;6.47;60.87;99903.00;5032571;28;19929;-62
2022/04/29 02:46:30;;;;;;;;;;;;;;;6.70;60.02;99902.63;5033960;28;19936;-62
2022/04/29 02:48:55;;;;;;;;;;;;;;;6.94;58.93;99909.19;5034216;28;19925;-62
2022/04/29 02:51:21;;;;;;;;;;;;;;;7.20;57.96;99912.84;5032588;28;20016;-62
2022/04/29 02:53:46;;;;;;;;;;;;;;;7.32;57.69;99908.56;5032790;28;19925;-62
2022/04/29 02:56:12;;;;;;;;;;;;;;;7.54;56.80;99909.19;5033069;28;20398;-61
2022/04/29 02:58:52;;;;;;;;;;;;;;;7.75;55.79;99905.50;5033918;28;19932;-62
2022/04/29 03:01:18;;;;;;;;;;;;;;;7.98;55.05;99899.75;5032265;28;19929;-60
2022/04/29 03:03:43;;;;;;;;;;;;;;;8.19;54.13;99907.41;5032355;28;20326;-62
2022/04/29 03:06:09;;;;;;;;;;;;;;;8.36;53.87;99907.75;5033603;28;20405;-61
2022/04/29 03:08:34;;;;;;;;;;;;;;;8.53;52.89;99912.56;5032316;28;20314;-63
2022/04/29 03:11:00;;;;;;;;;;;;;;;8.69;52.54;99924.50;5033633;28;20016;-62
2022/04/29 03:13:27;;;;;;;;;;;;;;;8.83;52.22;99918.13;5032145;28;19925;-63
2022/04/29 03:16:05;;;;;;;;;;;;;;;8.92;51.89;99918.69;5031786;28;20023;-62
2022/04/29 03:18:30;;;;;;;;;;;;;;;9.04;51.37;99919.59;5033103;28;19960;-63
2022/04/29 03:20:57;;;;;;;;;;;;;;;9.19;51.22;99929.88;5031811;28;19932;-63
2022/04/29 03:23:23;;;;;;;;;;;;;;;9.18;50.83;99928.25;5032224;28;19925;-63
2022/04/29 03:25:52;;;;;;;;;;;;;;;9.18;51.16;99921.13;5033097;28;20239;-61
2022/04/29 03:28:18;;;;;;;;;;;;;;;9.22;51.15;99919.66;5031520;28;19929;-61
2022/04/29 03:30:45;;;;;;;;;;;;;;;9.24;50.57;99928.22;5033442;28;19933;-62
2022/04/29 03:33:11;;;;;;;;;;;;;;;9.32;50.72;99932.41;5048191;28;19929;-62
2022/04/29 03:35:40;;;;;;;;;;;;;;;9.37;50.43;99940.50;5031446;28;19925;-62
2022/04/29 03:38:07;;;;;;;;;;;;;;;9.39;50.19;99935.81;5031725;28;19929;-62
2022/04/29 03:40:33;;;;;;;;;;;;;;;9.48;49.93;99947.75;5015204;28;19932;-61
2022/04/29 03:42:58;;;;;;;;;;;;;;;9.55;49.75;99945.03;5031412;28;20406;-63
2022/04/29 03:45:26;;;;;;;;;;;;;;;9.55;49.13;99942.41;5031029;28;19971;-63
2022/04/29 03:47:52;;;;;;;;;;;;;;;9.44;49.34;99951.03;5031608;28;19930;-62
2022/04/29 03:50:27;;;;;;;;;;;;;;;9.55;50.56;99953.78;5032889;28;19925;-63
2022/04/29 03:53:04;;;;;;;;;;;;;;;9.67;49.12;99945.94;5031304;28;19933;-61
2022/04/29 03:55:34;;;;;;;;;;;;;;;9.70;49.14;99952.66;5031013;28;19933;-60
2022/04/29 03:58:00;;;;;;;;;;;;;;;9.75;49.80;99945.69;5031425;28;19929;-62
2022/04/29 04:00:27;;;;;;;;;;;;;;;9.83;49.18;99954.38;5031308;28;19932;-62
2022/04/29 04:02:53;;;;;;;;;;;;;;;9.87;48.55;99950.25;5014917;28;20496;-62
2022/04/29 04:05:19;;;;;;;;;;;;;;;10.00;48.34;99942.19;5028758;28;19932;-63
2022/04/29 04:07:46;;;;;;;;;;;;;;;10.18;47.57;99941.41;5030707;28;19956;-61
2022/04/29 04:10:41;;;;;;;;;;;;;;;10.27;47.10;99947.25;5027781;28;20003;-62
2022/04/29 04:13:08;;;;;;;;;;;;;;;10.42;47.09;99950.31;5012491;28;19941;-61
2022/04/29 04:15:54;;;;;;;;;;;;;;;10.44;46.13;99950.88;5030535;28;19929;-63
2022/04/29 04:18:20;;;;;;;;;;;;;;;10.54;46.47;99951.19;5031873;28;19944;-62
2022/04/29 04:20:48;;;;;;;;;;;;;;;10.66;46.31;99943.28;5012703;28;20392;-62
2022/04/29 04:23:15;;;;;;;;;;;;;;;10.82;45.39;99950.59;5017921;28;19933;-61
2022/04/29 04:25:40;;;;;;;;;;;;;;;10.94;45.28;99950.63;5030516;28;19987;-63
2022/04/29 04:28:12;;;;;;;;;;;;;;;10.90;45.91;99947.63;5030589;28;19964;-62
2022/04/29 04:31:00;;;;;;;;;;;;;;;10.90;45.63;99949.47;5029921;28;19932;-61
2022/04/29 04:33:37;;;;;;;;;;;;;;;10.94;44.63;99955.13;5012715;28;19926;-62
2022/04/29 04:36:04;;;;;;;;;;;;;;;10.99;44.61;99945.47;5013595;28;19940;-61
2022/04/29 04:38:30;;;;;;;;;;;;;;;11.07;44.79;99947.00;5010551;28;20008;-62
2022/04/29 04:41:04;;;;;;;;;;;;;;;11.03;43.79;99946.66;5028789;28;19968;-63
2022/04/29 04:43:30;;;;;;;;;;;;;;;10.81;44.40;99954.28;5047044;28;20006;-63
2022/04/29 04:45:59;;;;;;;;;;;;;;;10.56;45.80;99948.28;5030045;28;19925;-63
2022/04/29 04:48:34;;;;;;;;;;;;;;;10.36;44.82;99954.66;5030359;28;19932;-63
2022/04/29 04:51:17;;;;;;;;;;;;;;;10.25;45.89;99950.06;5031385;28;19974;-62
2022/04/29 04:53:51;;;;;;;;;;;;;;;10.02;46.72;99950.72;5029996;28;19932;-60
2022/04/29 04:56:18;;;;;;;;;;;;;;;9.99;46.30;99959.09;5014131;28;19929;-63
2022/04/29 04:58:44;;;;;;;;;;;;;;;9.88;45.34;99949.22;5030119;28;19936;-64
2022/04/29 05:01:10;;;;;;;;;;;;;;;9.76;46.71;99949.13;5030073;28;20409;-61
2022/04/29 05:03:54;;;;;;;;;;;;;;;9.69;46.73;99954.50;5031522;28;20208;-62
2022/04/29 05:06:32;;;;;;;;;;;;;;;9.59;45.80;99959.47;5034224;28;19929;-63
2022/04/29 05:08:58;;;;;;;;;;;;;;;9.30;46.78;99950.34;5029813;28;19925;-63
2022/04/29 05:11:25;;;;;;;;;;;;;;;9.27;47.25;99956.06;5029893;28;19937;-63
2022/04/29 05:13:54;;;;;;;;;;;;;;;9.23;46.71;99955.66;5029704;28;19952;-62
2022/04/29 05:16:20;;;;;;;;;;;;;;;9.08;46.55;99953.31;5029582;28;20390;-63
2022/04/29 05:19:04;;;;;;;;;;;;;;;8.98;47.33;99955.63;5031433;28;20006;-65
2022/04/29 05:21:29;;;;;;;;;;;;;;;8.76;46.48;99952.50;5031149;28;19929;-63
2022/04/29 05:23:56;;;;;;;;;;;;;;;8.75;47.10;99953.53;5029524;28;19925;-63
2022/04/29 05:26:57;;;;;;;;;;;;;;;8.64;47.32;99952.34;4965922;28;20183;-62
2022/04/29 05:29:41;;;;;;;;;;;;;;;8.54;46.77;99952.00;5027565;28;19925;-64
2022/04/29 05:32:25;;;;;;;;;;;;;;;8.60;46.86;99942.44;5030645;28;19933;-62
2022/04/29 05:35:09;;;;;;;;;;;;;;;8.47;46.89;99951.22;5030176;28;20360;-64
2022/04/29 05:37:53;;;;;;;;;;;;;;;8.39;46.66;99951.47;5030201;28;19975;-63
2022/04/29 05:43:06;;;;;;;;;;;;;;;8.06;47.09;99948.88;5029845;28;19929;-68
2022/04/29 05:45:33;;;;;;;;;;;;;;;8.19;46.84;99957.56;5034984;28;19952;-68
2022/04/29 05:47:59;;;;;;;;;;;;;;;8.17;45.17;99953.53;5033197;28;19964;-63
2022/04/29 05:50:29;;;;;;;;;;;;;;;8.15;44.66;99945.81;5033453;28;19925;-67
2022/04/29 05:52:55;;;;;;;;;;;;;;;8.32;43.86;99953.28;5033304;28;20051;-68
2022/04/29 05:55:22;;;;;;;;;;;;;;;8.37;42.79;99959.56;5016407;28;20440;-65
2022/04/29 05:57:51;;;;;;;;;;;;;;;8.43;42.25;99952.66;5013291;28;19929;-64
2022/04/29 06:00:19;;;;;;;;;;;;;;;8.47;41.89;99961.81;5030230;28;19971;-65
2022/04/29 06:02:56;;;;;;;;;;;;;;;8.44;41.31;99961.38;5017785;28;20279;-65
2022/04/29 06:05:24;;;;;;;;;;;;;;;8.47;41.66;99959.16;5033645;28;20385;-60
2022/04/29 06:07:49;;;;;;;;;;;;;;;8.50;40.50;99966.66;5034130;28;20436;-62
2022/04/29 06:10:32;;;;;;;;;;;;;;;8.58;40.40;99957.66;5032121;28;19931;-62
2022/04/29 06:12:57;;;;;;;;;;;;;;;8.60;40.86;99959.09;5016296;28;20023;-63
2022/04/29 06:15:30;;;;;;;;;;;;;;;8.62;39.41;99954.41;5033127;28;19925;-62
2022/04/29 06:18:10;;;;;;;;;;;;;;;8.61;40.00;99951.97;5016829;28;20283;-64
2022/04/29 06:21:02;;;;;;;;;;;;;;;8.68;39.23;99947.47;5023722;28;19951;-63
2022/04/29 06:23:38;;;;;;;;;;;;;;;8.58;37.05;99955.84;5029648;28;20019;-62
2022/04/29 06:26:04;;;;;;;;;;;;;;;8.66;37.75;99954.00;5018748;28;19929;-60
2022/04/29 06:28:35;;;;;;;;;;;;;;;8.70;37.56;99950.69;5000885;28;20079;-63
2022/04/29 06:31:01;;;;;;;;;;;;;;;8.74;37.32;99949.28;5033087;28;19932;-61
2022/04/29 06:33:59;;;;;;;;;;;;;;;8.86;36.70;99955.50;5010601;28;19948;-61
2022/04/29 06:36:24;;;;;;;;;;;;;;;8.92;37.06;99950.41;4991801;28;19934;-61
2022/04/29 06:38:57;;;;;;;;;;;;;;;8.91;36.22;99943.47;4996295;28;20270;-62
2022/04/29 06:41:43;;;;;;;;;;;;;;;8.87;35.44;99943.09;4990252;28;19936;-63
2022/04/29 06:44:19;;;;;;;;;;;;;;;8.95;35.09;99944.69;4974369;28;19937;-63
2022/04/29 06:47:03;;;;;;;;;;;;;;;9.02;35.41;99934.88;4992555;28;19933;-63
2022/04/29 06:49:47;;;;;;;;;;;;;;;9.09;35.28;99933.00;4990921;28;20366;-63
2022/04/29 06:52:32;;;;;;;;;;;;;;;9.03;34.01;99931.19;4994924;28;19925;-63
2022/04/29 06:55:08;;;;;;;;;;;;;;;9.05;34.67;99926.50;4961612;28;19983;-63
2022/04/29 06:57:37;;;;;;;;;;;;;;;9.05;34.44;99929.94;4992512;28;19932;-62
2022/04/29 07:00:03;;;;;;;;;;;;;;;9.08;33.93;99931.38;5009331;28;19929;-62
2022/04/29 07:02:29;;;;;;;;;;;;;;;9.15;34.04;99937.44;4993392;28;20060;-62
2022/04/29 07:04:55;;;;;;;;;;;;;;;9.23;33.01;99939.00;5009491;28;19933;-63
2022/04/29 07:07:21;;;;;;;;;;;;;;;9.31;32.00;99936.09;5030590;28;20003;-64
2022/04/29 07:09:53;;;;;;;;;;;;;;;9.31;31.49;99930.78;5030950;28;19929;-62
2022/04/29 07:12:43;;;;;;;;;;;;;;;9.40;32.64;99929.50;5008748;28;20023;-64
2022/04/29 07:15:09;;;;;;;;;;;;;;;9.33;32.00;99931.41;4992770;28;19930;-63
2022/04/29 07:17:35;;;;;;;;;;;;;;;9.34;31.52;99930.38;5007645;28;20469;-63
2022/04/29 07:20:04;;;;;;;;;;;;;;;9.49;31.70;99928.19;4992448;28;20356;-63
2022/04/29 07:22:30;;;;;;;;;;;;;;;9.59;31.58;99919.78;5009344;28;19937;-62
2022/04/29 07:24:57;;;;;;;;;;;;;;;9.69;31.41;99928.03;4993749;28;19929;-63
2022/04/29 07:27:23;;;;;;;;;;;;;;;9.75;30.93;99916.56;5010256;28;19925;-63
2022/04/29 07:29:50;;;;;;;;;;;;;;;9.70;31.19;99921.69;4991849;28;20093;-63
2022/04/29 07:32:32;;;;;;;;;;;;;;;9.62;32.49;99927.28;4993367;28;19925;-63
2022/04/29 07:43:53;;;;;;;;;;;;;;;10.22;28.96;99913.41;5002480;28;19952;-63
2022/04/29 07:46:21;;;;;;;;;;;;;;;10.11;28.14;99922.91;5003825;28;19925;-64
2022/04/29 07:48:58;;;;;;;;;;;;;;;9.99;27.61;99911.44;5030676;28;19929;-63
2022/04/29 07:51:24;;;;;;;;;;;;;;;9.89;28.08;99911.13;5029448;28;20369;-64
2022/04/29 07:53:50;;;;;;;;;;;;;;;9.93;28.87;99902.53;5029887;28;19974;-64
2022/04/29 07:56:15;;;;;;;;;;;;;;;10.05;29.57;99902.59;5029925;28;19929;-63
2022/04/29 07:58:42;;;;;;;;;;;;;;;10.18;28.53;99906.94;5030883;28;20071;-64
2022/04/29 08:01:09;;;;;;;;;;;;;;;10.32;28.22;99908.41;5012838;28;19932;-63
2022/04/29 08:03:38;;;;;;;;;;;;;;;10.47;27.75;99894.81;5031130;28;19929;-62
2022/04/29 08:06:07;;;;;;;;;;;;;;;10.75;28.10;99904.81;5008808;28;22069;-61
2022/04/29 08:08:34;;;;;;;;;;;;;;;10.85;27.63;99899.78;5029306;28;20402;-62
2022/04/29 08:10:59;;;;;;;;;;;;;;;11.00;27.56;99890.56;5028138;28;19925;-63
2022/04/29 08:13:27;;;;;;;;;;;;;;;11.23;27.34;99889.78;5029159;28;19929;-62
2022/04/29 08:16:32;;;;;;;;;;;;;;;11.16;27.74;99889.13;4971992;28;19926;-63
2022/04/29 08:19:06;;;;;;;;;;;;;;;11.06;27.81;99879.03;4972265;28;20041;-63
2022/04/29 08:21:58;;;;;;;;;;;;;;;10.90;27.37;99878.66;5010728;28;19932;-64
2022/04/29 08:24:26;;;;;;;;;;;;;;;10.93;27.64;99877.41;5028070;28;19933;-64
2022/04/29 08:26:52;;;;;;;;;;;;;;;10.90;28.72;99886.63;5028842;28;19991;-63
2022/04/29 08:29:18;;;;;;;;;;;;;;;10.96;28.17;99884.09;5029872;28;20405;-65
2022/04/29 08:31:43;;;;;;;;;;;;;;;11.09;27.73;99884.72;5028355;28;19937;-62
2022/04/29 08:34:10;;;;;;;;;;;;;;;11.23;27.27;99877.34;5027888;28;19975;-63
2022/04/29 08:36:36;;;;;;;;;;;;;;;11.36;27.84;99876.31;5030145;28;19925;-63
2022/04/29 08:39:02;;;;;;;;;;;;;;;11.42;26.46;99872.75;5030493;28;19936;-64
2022/04/29 08:41:28;;;;;;;;;;;;;;;11.47;26.81;99866.72;5028883;28;20059;-63
2022/04/29 08:43:54;;;;;;;;;;;;;;;11.49;26.90;99869.97;5011528;28;20027;-65
2022/04/29 08:46:40;;;;;;;;;;;;;;;11.60;26.89;99864.66;4987589;28;19971;-64
2022/04/29 08:49:26;;;;;;;;;;;;;;;11.47;27.07;99859.59;4987182;28;19930;-64
2022/04/29 08:51:51;;;;;;;;;;;;;;;11.42;26.84;99862.13;4986692;28;19925;-63
2022/04/29 09:00:06;;;;;;;;;;;;;;;11.98;26.77;99846.63;4986173;28;20378;-62
2022/04/29 09:02:39;;;;;;;;;;;;;;;12.11;26.12;99838.34;4986783;28;20313;-63
2022/04/29 09:05:06;;;;;;;;;;;;;;;12.08;26.19;99841.50;4988944;28;19940;-67
2022/04/29 09:07:55;;;;;;;;;;;;;;;11.89;26.21;99846.16;4986699;28;20307;-62
2022/04/29 09:10:22;;;;;;;;;;;;;;;11.82;26.37;99840.97;4988245;28;20561;-62
2022/04/29 09:12:48;;;;;;;;;;;;;;;11.86;26.02;99848.50;4987490;28;19926;-63
2022/04/29 09:15:15;;;;;;;;;;;;;;;11.77;25.80;99837.41;4988438;28;19938;-64
2022/04/29 09:17:44;;;;;;;;;;;;;;;11.58;25.87;99834.84;5009612;28;19929;-64
2022/04/29 09:20:19;;;;;;;;;;;;;;;11.49;26.28;99830.94;5029469;28;20369;-64
2022/04/29 09:22:49;;;;;;;;;;;;;;;11.70;25.58;99826.88;5033308;28;20116;-64
2022/04/29 09:25:44;;;;;;;;;;;;;;;11.60;25.77;99827.47;5020886;28;19935;-63
2022/04/29 09:28:45;;;;;;;;;;;;;;;11.40;26.52;99832.34;5030987;28;19928;-63
2022/04/29 09:31:30;;;;;;;;;;;;;;;11.30;26.74;99832.13;5031674;28;19932;-63
2022/04/29 09:34:18;;;;;;;;;;;;;;;11.33;26.50;99831.66;4977435;28;19930;-64
2022/04/29 09:36:50;;;;;;;;;;;;;;;11.49;27.19;99824.84;4975614;28;19926;-61
2022/04/29 09:39:27;;;;;;;;;;;;;;;11.60;26.42;99832.78;4974446;28;19936;-64
2022/04/29 09:41:53;;;;;;;;;;;;;;;11.75;26.30;99819.03;4974641;28;19980;-62
2022/04/29 09:44:31;;;;;;;;;;;;;;;11.91;26.57;99812.22;4967275;28;20362;-64
2022/04/29 09:47:13;;;;;;;;;;;;;;;11.88;26.15;99817.97;4990887;28;20383;-62
2022/04/29 09:49:39;;;;;;;;;;;;;;;11.75;26.25;99821.69;4974725;28;19929;-63
2022/04/29 09:52:05;;;;;;;;;;;;;;;11.76;26.44;99822.47;4989701;28;20072;-63
2022/04/29 09:54:35;;;;;;;;;;;;;;;11.94;25.63;99809.09;4990596;28;20020;-63
2022/04/29 09:57:07;;;;;;;;;;;;;;;12.14;26.29;99802.53;4975413;28;20017;-61
2022/04/29 09:59:33;;;;;;;;;;;;;;;12.20;25.95;99802.38;4990170;28;20351;-64
2022/04/29 10:02:00;;;;;;;;;;;;;;;12.21;25.78;99800.56;4957693;28;19944;-63
2022/04/29 10:04:25;;;;;;;;;;;;;;;12.00;25.42;99788.72;4963682;28;20116;-64
2022/04/29 10:06:51;;;;;;;;;;;;;;;12.08;24.96;99792.84;5033349;28;20102;-62
2022/04/29 10:09:16;;;;;;;;;;;;;;;12.33;25.79;99796.00;5030826;28;20405;-63
2022/04/29 10:11:42;;;;;;;;;;;;;;;12.62;25.57;99796.75;5027203;28;19925;-63
2022/04/29 10:14:08;;;;;;;;;;;;;;;12.63;25.63;99806.34;5010816;28;20390;-61
2022/04/29 10:16:38;;;;;;;;;;;;;;;12.75;25.39;99797.50;5030040;28;19925;-62
2022/04/29 10:22:31;;;;;;;;;;;;;;;12.51;25.42;99805.59;5032967;28;19928;-62
2022/04/29 10:24:57;;;;;;;;;;;;;;;12.55;24.82;99806.72;5030933;28;20360;-64
2022/04/29 10:27:22;;;;;;;;;;;;;;;12.77;24.72;99798.06;5031503;28;19961;-62
2022/04/29 10:29:48;;;;;;;;;;;;;;;13.01;24.59;99804.03;5029488;28;19929;-63
2022/04/29 10:32:13;;;;;;;;;;;;;;;12.67;25.22;99793.38;5030609;28;19945;-65
2022/04/29 10:34:39;;;;;;;;;;;;;;;12.77;25.12;99798.06;5030840;28;19980;-62
2022/04/29 10:37:11;;;;;;;;;;;;;;;12.75;25.38;99787.66;5048004;28;20413;-63
2022/04/29 10:39:37;;;;;;;;;;;;;;;12.97;26.20;99777.09;5032040;28;20390;-63
2022/04/29 10:42:03;;;;;;;;;;;;;;;13.08;24.96;99783.34;5031403;28;19932;-61
2022/04/29 10:44:31;;;;;;;;;;;;;;;13.04;25.57;99782.25;5030640;28;20006;-65
2022/04/29 10:47:02;;;;;;;;;;;;;;;13.06;25.22;99775.63;5029677;28;19925;-66
2022/04/29 10:49:48;;;;;;;;;;;;;;;13.15;25.03;99778.69;5009836;28;20443;-66
2022/04/29 10:52:28;;;;;;;;;;;;;;;12.99;24.71;99771.53;5031866;28;19971;-65
2022/04/29 10:55:04;;;;;;;;;;;;;;;12.96;24.78;99764.81;5029902;28;20413;-65
2022/04/29 10:57:38;;;;;;;;;;;;;;;12.99;24.87;99772.31;5047067;28;20377;-64
2022/04/29 11:00:11;;;;;;;;;;;;;;;12.94;25.10;99767.75;5014393;28;19973;-65
2022/04/29 11:02:39;;;;;;;;;;;;;;;12.93;24.74;99766.13;5031771;28;19936;-66
2022/04/29 11:05:05;;;;;;;;;;;;;;;12.81;24.79;99772.56;5032014;28;19929;-67
2022/04/29 11:07:44;;;;;;;;;;;;;;;12.89;25.09;99777.50;4997081;28;19929;-65
2022/04/29 11:10:14;;;;;;;;;;;;;;;13.06;24.99;99764.16;5029725;28;19925;-66
2022/04/29 11:12:54;;;;;;;;;;;;;;;13.07;24.86;99763.94;5019676;28;19930;-66
2022/04/29 11:15:39;;;;;;;;;;;;;;;12.87;24.63;99750.31;5011751;28;19925;-65
2022/04/29 11:18:15;;;;;;;;;;;;;;;12.84;24.55;99756.13;5025727;28;19979;-65
2022/04/29 11:20:44;;;;;;;;;;;;;;;12.70;24.76;99751.13;5030674;28;19932;-63
2022/04/29 11:26:00;;;;;;;;;;;;;;;12.76;25.61;99745.88;5029981;28;20313;-68
2022/04/29 11:28:42;;;;;;;;;;;;;;;12.85;26.04;99739.09;5030737;28;19925;-66
2022/04/29 11:31:23;;;;;;;;;;;;;;;12.65;25.13;99742.28;5032353;28;19945;-67
2022/04/29 11:33:48;;;;;;;;;;;;;;;12.66;25.37;99738.56;5031944;28;19932;-67
2022/04/29 11:36:14;;;;;;;;;;;;;;;12.54;25.42;99737.84;5031674;28;20011;-68
2022/04/29 11:38:44;;;;;;;;;;;;;;;12.46;25.53;99729.22;5015445;28;19925;-67
2022/04/29 11:41:17;;;;;;;;;;;;;;;12.50;25.58;99729.56;5021033;28;19925;-65
2022/04/29 11:43:44;;;;;;;;;;;;;;;12.46;25.71;99729.22;5032850;28;20418;-66
2022/04/29 11:46:10;;;;;;;;;;;;;;;12.51;25.71;99736.47;5032627;28;20337;-68
2022/04/29 11:48:53;;;;;;;;;;;;;;;12.68;26.06;99726.66;5030608;28;19964;-65
2022/04/29 11:51:19;;;;;;;;;;;;;;;12.82;25.42;99726.28;5032516;28;20069;-67
2022/04/29 11:53:56;;;;;;;;;;;;;;;12.53;25.23;99726.41;5031923;28;20028;-65
2022/04/29 11:56:22;;;;;;;;;;;;;;;12.45;25.83;99721.50;5032545;28;19968;-65
2022/04/29 11:58:48;;;;;;;;;;;;;;;12.60;25.57;99713.75;5021103;28;19965;-69
2022/04/29 12:01:15;;;;;;;;;;;;;;;12.52;25.58;99706.16;5030607;28;19990;-67
2022/04/29 12:03:49;;;;;;;;;;;;;;;12.45;25.62;99708.19;5015301;28;19947;-67
2022/04/29 12:06:16;;;;;;;;;;;;;;;12.51;25.60;99712.53;5023681;28;19936;-62
2022/04/29 12:08:42;;;;;;;;;;;;;;;12.52;25.72;99706.16;4997886;28;19939;-66
2022/04/29 12:11:23;;;;;;;;;;;;;;;12.38;25.47;99695.06;5029450;28;19929;-67
2022/04/29 12:13:49;;;;;;;;;;;;;;;12.43;25.82;99692.47;5031863;28;20394;-66
2022/04/29 12:16:15;;;;;;;;;;;;;;;12.54;25.92;99692.66;5014109;28;19929;-65
2022/04/29 12:18:43;;;;;;;;;;;;;;;12.46;25.54;99686.66;5032543;28;19925;-67
2022/04/29 12:21:09;;;;;;;;;;;;;;;12.51;25.12;99685.94;5031939;28;19932;-65
2022/04/29 12:23:42;;;;;;;;;;;;;;;12.62;25.30;99681.59;5045784;28;20386;-65
2022/04/29 12:26:24;;;;;;;;;;;;;;;12.65;24.94;99670.47;4998658;28;19929;-65
2022/04/29 12:28:53;;;;;;;;;;;;;;;12.59;25.33;99684.72;5009560;28;19931;-64
2022/04/29 12:37:06;;;;;;;;;;;;;;;12.05;25.76;99670.06;5028716;28;19933;-64
2022/04/29 12:39:50;;;;;;;;;;;;;;;12.30;25.51;99665.44;5045925;28;19971;-63
2022/04/29 12:42:17;;;;;;;;;;;;;;;12.44;25.82;99661.38;5030644;28;19928;-63
2022/04/29 12:45:04;;;;;;;;;;;;;;;12.53;25.57;99659.09;5030497;28;19979;-64
2022/04/29 12:47:33;;;;;;;;;;;;;;;12.57;25.34;99654.94;5028232;28;20008;-67
2022/04/29 12:50:34;;;;;;;;;;;;;;;12.55;25.95;99651.69;5026738;28;19980;-63
2022/04/29 12:53:06;;;;;;;;;;;;;;;12.27;25.87;99648.09;5009180;28;19933;-62
2022/04/29 12:55:34;;;;;;;;;;;;;;;12.02;25.85;99651.13;5014140;28;19931;-62
2022/04/29 12:58:08;;;;;;;;;;;;;;;11.99;26.62;99639.13;5011625;28;19929;-63
2022/04/29 13:00:34;;;;;;;;;;;;;;;12.03;26.65;99627.00;5011786;28;19925;-65
2022/04/29 13:03:10;;;;;;;;;;;;;;;12.16;25.88;99635.69;5010697;28;19968;-65
2022/04/29 13:05:40;;;;;;;;;;;;;;;12.22;25.79;99638.19;5014370;28;19925;-64
2022/04/29 13:08:07;;;;;;;;;;;;;;;12.20;25.66;99636.81;5031678;28;19936;-67
2022/04/29 13:10:40;;;;;;;;;;;;;;;12.20;26.18;99634.16;5013160;28;19999;-72
2022/04/29 13:13:06;;;;;;;;;;;;;;;12.30;25.64;99636.97;5029381;28;20348;-68
2022/04/29 13:15:33;;;;;;;;;;;;;;;12.43;25.67;99633.97;5031075;28;19925;-63
2022/04/29 13:17:59;;;;;;;;;;;;;;;12.54;25.46;99629.63;5031376;28;19956;-63
2022/04/29 13:20:26;;;;;;;;;;;;;;;12.50;25.75;99633.84;5031053;28;19929;-64
2022/04/29 13:22:52;;;;;;;;;;;;;;;12.59;25.70;99623.56;5030280;28;20402;-64
2022/04/29 13:25:18;;;;;;;;;;;;;;;12.59;26.05;99621.72;5011897;28;19937;-68
2022/04/29 13:27:45;;;;;;;;;;;;;;;12.44;26.02;99632.94;5001909;28;19933;-68
2022/04/29 13:30:11;;;;;;;;;;;;;;;12.39;25.85;99624.09;5028649;28;19925;-66
2022/04/29 13:32:37;;;;;;;;;;;;;;;12.23;26.38;99623.03;5009404;28;19929;-67
2022/04/29 13:35:03;;;;;;;;;;;;;;;12.22;26.03;99632.88;5010875;28;20314;-65
2022/04/29 13:37:32;;;;;;;;;;;;;;;12.19;26.37;99632.56;5011395;28;19979;-64
2022/04/29 13:39:59;;;;;;;;;;;;;;;12.26;26.93;99627.88;5013197;28;19924;-65